Portada
METAR-TAF:

METAR-TAF

Aeroports :

Miri, Malàisia

latitud: 04-20N, longitud: 113-59E, altitud: 17 m

Observació

L'informe es va fer fa 1 hora i 5 minuts, a les 12:00 UTC
Vent calma
Temperatura 29°C
Humitat 84%
Pressió 1006 hPa
Visibilitat 10 km o més
Núvols disperses a una alçada de 1400 ft

METAR: WBGR 141200Z 00000KT 9999 SCT014 29/26 Q1006

Hora: 21:05 (13:05 UTC)

Pronòstic

L'informe es va fer fa 2 hores i 5 minuts, a les 11:00 UTC
Pronòstic vàlid del 14 a les 12 UTC al 15 a les 12 UTC
Vent 3 kt amb direcció variable
Visibilitat 10 km o més
Núvols disperses a una alçada de 1600 ft
Temporalment
l' 14 a les 12 UTC al 14 a les 16 UTC
Vent 6 kt del Nord-Oest
Visibilitat: 4000 m
Escasses núvols a una alçada de 1500 ft, Cumulonimbus.
tempesta, pluja

TAF: WBGR 141100Z 1412/1512 VRB03KT 9999 SCT016 TEMPO 1412/1416 31006KT 4000 TSRA FEW015CB

Observacions i pronòstics meteorològics de més de 4000 aeroports (METAR i TAF).

Les estacions disponibles són els punts grocs i vermells al mapa.

Posi el ratolí al punt desitjat per veure el nom de l'estació.

Feu clic per veure les observacions i els pronòstics meteorològics.

Per canviar el mapa: feu clic els botons verds amb una creu de color negre per apropar; al botó verd amb un guió per allunyar la imatge; o en les fletxes verdes per a mapes adjacents.


METAR-TAF: